sensor_id;sensor_type;location;lat;lon;timestamp;pressure;altitude;pressure_sealevel;temperature;humidity
30682;BME280;17439;48.092;11.842;2023-02-12T00:01:58;97246.47;;;5.82;59.72
30682;BME280;17439;48.092;11.842;2023-02-12T00:04:24;97242.38;;;5.80;59.82
30682;BME280;17439;48.092;11.842;2023-02-12T00:06:51;97235.34;;;5.79;59.87
30682;BME280;17439;48.092;11.842;2023-02-12T00:09:17;97238.28;;;5.77;59.98
30682;BME280;17439;48.092;11.842;2023-02-12T00:11:44;97237.22;;;5.78;60.07
30682;BME280;17439;48.092;11.842;2023-02-12T00:14:11;97238.28;;;5.77;60.15
30682;BME280;17439;48.092;11.842;2023-02-12T00:16:37;97238.28;;;5.77;60.23
30682;BME280;17439;48.092;11.842;2023-02-12T00:19:04;97228.34;;;5.78;60.39
30682;BME280;17439;48.092;11.842;2023-02-12T00:21:30;97229.13;;;5.78;60.26
30682;BME280;17439;48.092;11.842;2023-02-12T00:23:57;97225.41;;;5.79;60.32
30682;BME280;17439;48.092;11.842;2023-02-12T00:26:23;97236.97;;;5.80;60.45
30682;BME280;17439;48.092;11.842;2023-02-12T00:28:51;97235.94;;;5.81;60.50
30682;BME280;17439;48.092;11.842;2023-02-12T00:31:23;97235.69;;;5.82;59.33
30682;BME280;17439;48.092;11.842;2023-02-12T00:33:51;97241.66;;;5.85;60.54
30682;BME280;17439;48.092;11.842;2023-02-12T00:36:23;97239.78;;;5.85;59.02
30682;BME280;17439;48.092;11.842;2023-02-12T00:38:52;97231.47;;;5.87;60.17
30682;BME280;17439;48.092;11.842;2023-02-12T00:41:20;97227.25;;;5.91;60.27
30682;BME280;17439;48.092;11.842;2023-02-12T00:43:47;97226.69;;;5.89;60.37
30682;BME280;17439;48.092;11.842;2023-02-12T00:46:14;97235.31;;;5.91;60.29
30682;BME280;17439;48.092;11.842;2023-02-12T00:48:42;97231.00;;;5.90;60.47
30682;BME280;17439;48.092;11.842;2023-02-12T00:51:09;97231.59;;;5.92;60.38
30682;BME280;17439;48.092;11.842;2023-02-12T00:53:35;97233.22;;;5.93;60.50
30682;BME280;17439;48.092;11.842;2023-02-12T00:56:02;97250.78;;;5.95;60.32
30682;BME280;17439;48.092;11.842;2023-02-12T00:58:29;97254.28;;;5.96;60.24
30682;BME280;17439;48.092;11.842;2023-02-12T01:00:58;97248.88;;;5.96;60.33
30682;BME280;17439;48.092;11.842;2023-02-12T01:03:24;97251.59;;;5.96;60.32
30682;BME280;17439;48.092;11.842;2023-02-12T01:05:52;97256.97;;;5.96;60.15
30682;BME280;17439;48.092;11.842;2023-02-12T01:08:20;97249.94;;;5.95;60.20
30682;BME280;17439;48.092;11.842;2023-02-12T01:10:55;97248.31;;;5.94;58.69
30682;BME280;17439;48.092;11.842;2023-02-12T01:13:22;97244.56;;;5.95;60.07
30682;BME280;17439;48.092;11.842;2023-02-12T01:15:59;97247.25;;;5.95;59.97
30682;BME280;17439;48.092;11.842;2023-02-12T01:18:26;97248.31;;;5.94;60.04
30682;BME280;17439;48.092;11.842;2023-02-12T01:20:52;97253.69;;;5.94;60.20
30682;BME280;17439;48.092;11.842;2023-02-12T01:23:22;97252.06;;;5.93;60.30
30682;BME280;17439;48.092;11.842;2023-02-12T01:25:48;97251.25;;;5.92;60.12
30682;BME280;17439;48.092;11.842;2023-02-12T01:28:15;97250.44;;;5.92;60.23
30682;BME280;17439;48.092;11.842;2023-02-12T01:30:43;97247.13;;;5.90;60.38
30682;BME280;17439;48.092;11.842;2023-02-12T01:33:09;97254.16;;;5.91;60.21
30682;BME280;17439;48.092;11.842;2023-02-12T01:35:36;97261.44;;;5.90;60.35
30682;BME280;17439;48.092;11.842;2023-02-12T01:38:04;97263.28;;;5.90;60.38
30682;BME280;17439;48.092;11.842;2023-02-12T01:40:31;97254.16;;;5.91;60.35
30682;BME280;17439;48.092;11.842;2023-02-12T01:43:00;97250.91;;;5.89;59.74
30682;BME280;17439;48.092;11.842;2023-02-12T01:47:59;97248.44;;;5.87;60.37
30682;BME280;17439;48.092;11.842;2023-02-12T01:50:27;97246.81;;;5.86;60.45
30682;BME280;17439;48.092;11.842;2023-02-12T01:52:55;97246.81;;;5.86;60.18
30682;BME280;17439;48.092;11.842;2023-02-12T01:55:23;97236.28;;;5.85;60.35
30682;BME280;17439;48.092;11.842;2023-02-12T01:57:50;97244.34;;;5.85;60.37
30682;BME280;17439;48.092;11.842;2023-02-12T02:00:22;97248.31;;;5.82;59.75
30682;BME280;17439;48.092;11.842;2023-02-12T02:02:54;97232.16;;;5.82;60.21
30682;BME280;17439;48.092;11.842;2023-02-12T02:05:27;97226.22;;;5.80;60.15
30682;BME280;17439;48.092;11.842;2023-02-12T02:07:56;97231.34;;;5.81;60.95
30682;BME280;17439;48.092;11.842;2023-02-12T02:10:24;97235.69;;;5.82;60.91
30682;BME280;17439;48.092;11.842;2023-02-12T02:12:52;97239.19;;;5.83;60.88
30682;BME280;17439;48.092;11.842;2023-02-12T02:15:19;97245.63;;;5.82;60.89
30682;BME280;17439;48.092;11.842;2023-02-12T02:18:11;97249.41;;;5.81;59.52
30682;BME280;17439;48.092;11.842;2023-02-12T02:21:02;97259.31;;;5.80;59.26
30682;BME280;17439;48.092;11.842;2023-02-12T02:23:44;97246.69;;;5.81;60.26
30682;BME280;17439;48.092;11.842;2023-02-12T02:26:49;97246.09;;;5.79;58.87
30682;BME280;17439;48.092;11.842;2023-02-12T02:32:30;97236.88;;;5.75;59.04
30682;BME280;17439;48.092;11.842;2023-02-12T02:35:05;97235.84;;;5.76;59.70
30682;BME280;17439;48.092;11.842;2023-02-12T02:37:48;97237.44;;;5.77;60.14
30682;BME280;17439;48.092;11.842;2023-02-12T02:40:19;97237.44;;;5.77;60.34
30682;BME280;17439;48.092;11.842;2023-02-12T02:42:51;97231.25;;;5.76;60.76
30682;BME280;17439;48.092;11.842;2023-02-12T02:48:00;97222.63;;;5.74;60.06
30682;BME280;17439;48.092;11.842;2023-02-12T02:50:30;97226.13;;;5.75;60.65
30682;BME280;17439;48.092;11.842;2023-02-12T02:53:03;97211.00;;;5.74;60.19
30682;BME280;17439;48.092;11.842;2023-02-12T02:55:36;97213.94;;;5.72;59.91
30682;BME280;17439;48.092;11.842;2023-02-12T02:58:22;97217.69;;;5.71;59.29
30682;BME280;17439;48.092;11.842;2023-02-12T03:01:11;97216.84;;;5.71;59.76
30682;BME280;17439;48.092;11.842;2023-02-12T03:03:52;97224.69;;;5.72;59.56
30682;BME280;17439;48.092;11.842;2023-02-12T03:06:27;97231.72;;;5.73;60.16
30682;BME280;17439;48.092;11.842;2023-02-12T03:08:59;97238.75;;;5.74;60.58
30682;BME280;17439;48.092;11.842;2023-02-12T03:11:29;97240.38;;;5.75;60.37
30682;BME280;17439;48.092;11.842;2023-02-12T03:14:02;97246.00;;;5.74;60.21
30682;BME280;17439;48.092;11.842;2023-02-12T03:16:34;97243.31;;;5.74;60.31
30682;BME280;17439;48.092;11.842;2023-02-12T03:19:09;97244.38;;;5.73;60.25
30682;BME280;17439;48.092;11.842;2023-02-12T03:21:42;97251.63;;;5.72;60.00
30682;BME280;17439;48.092;11.842;2023-02-12T03:24:17;97256.19;;;5.72;59.96
30682;BME280;17439;48.092;11.842;2023-02-12T03:26:54;97254.53;;;5.71;59.53
30682;BME280;17439;48.092;11.842;2023-02-12T03:29:25;97250.47;;;5.68;61.09
30682;BME280;17439;48.092;11.842;2023-02-12T03:34:29;97247.78;;;5.68;60.47
30682;BME280;17439;48.092;11.842;2023-02-12T03:37:05;97250.69;;;5.67;60.28
30682;BME280;17439;48.092;11.842;2023-02-12T03:39:43;97247.78;;;5.68;60.56
30682;BME280;17439;48.092;11.842;2023-02-12T03:43:17;97242.63;;;5.67;60.21
30682;BME280;17439;48.092;11.842;2023-02-12T03:48:26;97247.78;;;5.68;60.44
30682;BME280;17439;48.092;11.842;2023-02-12T03:50:57;97246.69;;;5.69;60.82
30682;BME280;17439;48.092;11.842;2023-02-12T03:53:27;97245.88;;;5.69;61.57
30682;BME280;17439;48.092;11.842;2023-02-12T03:55:59;97253.84;;;5.63;60.41
30682;BME280;17439;48.092;11.842;2023-02-12T03:58:31;97253.72;;;5.70;61.11
30682;BME280;17439;48.092;11.842;2023-02-12T04:01:00;97248.91;;;5.72;61.57
30682;BME280;17439;48.092;11.842;2023-02-12T04:03:28;97257.00;;;5.72;61.58
30682;BME280;17439;48.092;11.842;2023-02-12T04:05:55;97257.00;;;5.72;61.80
30682;BME280;17439;48.092;11.842;2023-02-12T04:08:23;97273.97;;;5.73;61.66
30682;BME280;17439;48.092;11.842;2023-02-12T04:11:16;97270.44;;;5.72;60.01
30682;BME280;17439;48.092;11.842;2023-02-12T04:16:39;97267.75;;;5.72;60.39
30682;BME280;17439;48.092;11.842;2023-02-12T04:19:12;97262.38;;;5.72;60.92
30682;BME280;17439;48.092;11.842;2023-02-12T04:22:10;97272.09;;;5.73;60.62
30682;BME280;17439;48.092;11.842;2023-02-12T04:24:45;97260.53;;;5.73;60.38
30682;BME280;17439;48.092;11.842;2023-02-12T04:27:37;97282.06;;;5.73;60.22
30682;BME280;17439;48.092;11.842;2023-02-12T04:30:20;97289.91;;;5.74;60.79
30682;BME280;17439;48.092;11.842;2023-02-12T04:32:53;97286.38;;;5.74;61.37
30682;BME280;17439;48.092;11.842;2023-02-12T04:35:34;97278.28;;;5.74;61.03
30682;BME280;17439;48.092;11.842;2023-02-12T04:38:09;97279.13;;;5.74;61.08
30682;BME280;17439;48.092;11.842;2023-02-12T04:40:39;97282.41;;;5.76;62.04
30682;BME280;17439;48.092;11.842;2023-02-12T04:43:06;97280.63;;;5.70;60.57
30682;BME280;17439;48.092;11.842;2023-02-12T04:45:34;97285.91;;;5.77;62.08
30682;BME280;17439;48.092;11.842;2023-02-12T04:48:01;97289.28;;;5.72;60.69
30682;BME280;17439;48.092;11.842;2023-02-12T04:50:37;97289.44;;;5.77;60.67
30682;BME280;17439;48.092;11.842;2023-02-12T04:53:04;97285.44;;;5.80;62.20
30682;BME280;17439;48.092;11.842;2023-02-12T04:55:31;97291.63;;;5.80;62.07
30682;BME280;17439;48.092;11.842;2023-02-12T04:57:58;97289.75;;;5.81;62.21
30682;BME280;17439;48.092;11.842;2023-02-12T05:00:25;97293.03;;;5.83;62.23
30682;BME280;17439;48.092;11.842;2023-02-12T05:02:51;97294.69;;;5.84;62.04
30682;BME280;17439;48.092;11.842;2023-02-12T05:05:18;97305.22;;;5.86;62.03
30682;BME280;17439;48.092;11.842;2023-02-12T05:07:44;97292.78;;;5.85;61.96
30682;BME280;17439;48.092;11.842;2023-02-12T05:10:11;97298.19;;;5.85;62.07
30682;BME280;17439;48.092;11.842;2023-02-12T05:12:38;97300.06;;;5.84;61.96
30682;BME280;17439;48.092;11.842;2023-02-12T05:15:04;97305.22;;;5.86;61.89
30682;BME280;17439;48.092;11.842;2023-02-12T05:17:31;97294.69;;;5.84;62.06
30682;BME280;17439;48.092;11.842;2023-02-12T05:19:57;97303.56;;;5.85;62.20
30682;BME280;17439;48.092;11.842;2023-02-12T05:22:24;97304.16;;;5.87;61.92
30682;BME280;17439;48.092;11.842;2023-02-12T05:24:51;97300.63;;;5.86;62.03
30682;BME280;17439;48.092;11.842;2023-02-12T05:27:17;97308.72;;;5.86;61.92
30682;BME280;17439;48.092;11.842;2023-02-12T05:29:44;97297.94;;;5.86;61.80
30682;BME280;17439;48.092;11.842;2023-02-12T05:32:11;97315.97;;;5.86;61.72
30682;BME280;17439;48.092;11.842;2023-02-12T05:34:37;97315.13;;;5.85;61.80
30682;BME280;17439;48.092;11.842;2023-02-12T05:37:04;97309.19;;;5.83;61.94
30682;BME280;17439;48.092;11.842;2023-02-12T05:39:31;97311.06;;;5.82;61.97
30682;BME280;17439;48.092;11.842;2023-02-12T05:41:57;97311.06;;;5.82;61.88
30682;BME280;17439;48.092;11.842;2023-02-12T05:44:24;97312.91;;;5.82;61.74
30682;BME280;17439;48.092;11.842;2023-02-12T05:46:51;97311.88;;;5.83;62.06
30682;BME280;17439;48.092;11.842;2023-02-12T05:49:17;97311.06;;;5.82;62.07
30682;BME280;17439;48.092;11.842;2023-02-12T05:51:44;97311.06;;;5.82;62.09
30682;BME280;17439;48.092;11.842;2023-02-12T05:54:10;97312.69;;;5.84;61.84
30682;BME280;17439;48.092;11.842;2023-02-12T05:56:43;97312.44;;;5.85;60.50
30682;BME280;17439;48.092;11.842;2023-02-12T05:59:27;97313.75;;;5.82;60.18
30682;BME280;17439;48.092;11.842;2023-02-12T06:01:54;97312.91;;;5.82;61.27
30682;BME280;17439;48.092;11.842;2023-02-12T06:04:27;97316.69;;;5.81;60.32
30682;BME280;17439;48.092;11.842;2023-02-12T06:06:55;97318.78;;;5.79;61.59
30682;BME280;17439;48.092;11.842;2023-02-12T06:09:22;97319.03;;;5.77;61.64
30682;BME280;17439;48.092;11.842;2023-02-12T06:11:49;97320.06;;;5.76;61.58
30682;BME280;17439;48.092;11.842;2023-02-12T06:14:17;97324.66;;;5.76;61.85
30682;BME280;17439;48.092;11.842;2023-02-12T06:16:47;97327.56;;;5.74;61.81
30682;BME280;17439;48.092;11.842;2023-02-12T06:19:14;97333.75;;;5.75;62.09
30682;BME280;17439;48.092;11.842;2023-02-12T06:21:41;97332.34;;;5.72;62.22
30682;BME280;17439;48.092;11.842;2023-02-12T06:24:09;97337.72;;;5.72;62.26
30682;BME280;17439;48.092;11.842;2023-02-12T06:26:37;97329.66;;;5.72;62.53
30682;BME280;17439;48.092;11.842;2023-02-12T06:29:04;97326.97;;;5.72;62.63
30682;BME280;17439;48.092;11.842;2023-02-12T06:31:33;97334.00;;;5.73;62.14
30682;BME280;17439;48.092;11.842;2023-02-12T06:34:03;97335.66;;;5.74;62.51
30682;BME280;17439;48.092;11.842;2023-02-12T06:36:30;97338.91;;;5.76;62.83
30682;BME280;17439;48.092;11.842;2023-02-12T06:38:56;97345.94;;;5.77;62.60
30682;BME280;17439;48.092;11.842;2023-02-12T06:41:23;97334.09;;;5.78;62.70
30682;BME280;17439;48.092;11.842;2023-02-12T06:43:49;97340.06;;;5.80;62.84
30682;BME280;17439;48.092;11.842;2023-02-12T06:46:16;97343.38;;;5.82;62.71
30682;BME280;17439;48.092;11.842;2023-02-12T06:48:43;97340.44;;;5.84;63.03
30682;BME280;17439;48.092;11.842;2023-02-12T06:51:16;97335.88;;;5.85;62.13
30682;BME280;17439;48.092;11.842;2023-02-12T06:53:43;97338.09;;;5.88;62.97
30682;BME280;17439;48.092;11.842;2023-02-12T06:56:11;97345.94;;;5.89;63.04
30682;BME280;17439;48.092;11.842;2023-02-12T06:58:40;97344.66;;;5.92;62.87
30682;BME280;17439;48.092;11.842;2023-02-12T07:01:19;97340.09;;;5.92;62.33
30682;BME280;17439;48.092;11.842;2023-02-12T07:03:51;97350.63;;;5.94;63.02
30682;BME280;17439;48.092;11.842;2023-02-12T07:06:18;97354.13;;;5.94;63.05
30682;BME280;17439;48.092;11.842;2023-02-12T07:08:45;97358.47;;;5.95;63.03
30682;BME280;17439;48.092;11.842;2023-02-12T07:11:12;97346.84;;;5.95;63.07
30682;BME280;17439;48.092;11.842;2023-02-12T07:13:42;97357.63;;;5.95;62.71
30682;BME280;17439;48.092;11.842;2023-02-12T07:16:14;97359.28;;;5.96;62.78
30682;BME280;17439;48.092;11.842;2023-02-12T07:18:42;97359.88;;;5.98;63.68
30682;BME280;17439;48.092;11.842;2023-02-12T07:21:10;97354.25;;;5.99;63.94
30682;BME280;17439;48.092;11.842;2023-02-12T07:23:37;97351.34;;;6.01;63.97
30682;BME280;17439;48.092;11.842;2023-02-12T07:26:06;97350.88;;;6.04;63.92
30682;BME280;17439;48.092;11.842;2023-02-12T07:28:34;97350.41;;;6.07;64.16
30682;BME280;17439;48.092;11.842;2023-02-12T07:31:11;97350.78;;;6.11;63.43
30682;BME280;17439;48.092;11.842;2023-02-12T07:33:39;97343.72;;;6.10;63.02
30682;BME280;17439;48.092;11.842;2023-02-12T07:36:10;97343.94;;;6.20;63.96
30682;BME280;17439;48.092;11.842;2023-02-12T07:38:37;97351.09;;;6.26;64.64
30682;BME280;17439;48.092;11.842;2023-02-12T07:41:13;97344.75;;;6.32;63.86
30682;BME280;17439;48.092;11.842;2023-02-12T07:43:41;97343.81;;;6.39;64.54
30682;BME280;17439;48.092;11.842;2023-02-12T07:46:15;97354.69;;;6.44;63.93
30682;BME280;17439;48.092;11.842;2023-02-12T07:48:43;97349.16;;;6.50;64.59
30682;BME280;17439;48.092;11.842;2023-02-12T07:51:12;97347.88;;;6.53;64.28
30682;BME280;17439;48.092;11.842;2023-02-12T07:53:40;97346.91;;;6.59;64.61
30682;BME280;17439;48.092;11.842;2023-02-12T07:56:08;97347.25;;;6.63;64.74
30682;BME280;17439;48.092;11.842;2023-02-12T07:58:36;97349.56;;;6.71;64.83
30682;BME280;17439;48.092;11.842;2023-02-12T08:01:21;97344.31;;;6.76;63.63
30682;BME280;17439;48.092;11.842;2023-02-12T08:03:48;97340.63;;;6.82;65.06
30682;BME280;17439;48.092;11.842;2023-02-12T08:06:18;97341.31;;;6.89;64.70
30682;BME280;17439;48.092;11.842;2023-02-12T08:08:45;97344.09;;;6.95;64.98
30682;BME280;17439;48.092;11.842;2023-02-12T08:11:13;97337.72;;;7.01;64.82
30682;BME280;17439;48.092;11.842;2023-02-12T08:13:40;97339.72;;;7.05;65.01
30682;BME280;17439;48.092;11.842;2023-02-12T08:16:14;97337.59;;;7.07;63.51
30682;BME280;17439;48.092;11.842;2023-02-12T08:18:41;97342.25;;;7.12;65.01
30682;BME280;17439;48.092;11.842;2023-02-12T08:21:16;97332.88;;;7.15;63.55
30682;BME280;17439;48.092;11.842;2023-02-12T08:23:44;97337.78;;;7.18;64.58
30682;BME280;17439;48.092;11.842;2023-02-12T08:26:13;97347.59;;;7.24;65.00
30682;BME280;17439;48.092;11.842;2023-02-12T08:28:45;97336.09;;;7.29;63.76
30682;BME280;17439;48.092;11.842;2023-02-12T08:31:15;97339.66;;;7.34;64.67
30682;BME280;17439;48.092;11.842;2023-02-12T08:33:43;97334.09;;;7.41;65.07
30682;BME280;17439;48.092;11.842;2023-02-12T08:36:12;97332.56;;;7.45;64.78
30682;BME280;17439;48.092;11.842;2023-02-12T08:38:40;97337.00;;;7.51;65.20
30682;BME280;17439;48.092;11.842;2023-02-12T08:41:15;97325.13;;;7.52;63.76
30682;BME280;17439;48.092;11.842;2023-02-12T08:43:45;97332.66;;;7.50;63.07
30682;BME280;17439;48.092;11.842;2023-02-12T08:46:14;97327.19;;;7.62;64.98
30682;BME280;17439;48.092;11.842;2023-02-12T08:48:42;97323.22;;;7.70;65.39
30682;BME280;17439;48.092;11.842;2023-02-12T08:51:11;97326.28;;;7.73;64.98
30682;BME280;17439;48.092;11.842;2023-02-12T08:53:39;97325.84;;;7.81;65.35
30682;BME280;17439;48.092;11.842;2023-02-12T08:56:06;97319.72;;;7.86;65.52
30682;BME280;17439;48.092;11.842;2023-02-12T08:58:34;97330.91;;;7.95;65.48
30682;BME280;17439;48.092;11.842;2023-02-12T09:01:01;97324.25;;;8.03;65.67
30682;BME280;17439;48.092;11.842;2023-02-12T09:03:28;97327.63;;;8.10;65.45
30682;BME280;17439;48.092;11.842;2023-02-12T09:05:54;97326.59;;;8.16;65.21
30682;BME280;17439;48.092;11.842;2023-02-12T09:08:21;97328.91;;;8.24;65.33
30682;BME280;17439;48.092;11.842;2023-02-12T09:10:48;97327.38;;;8.33;65.08
30682;BME280;17439;48.092;11.842;2023-02-12T09:13:15;97331.53;;;8.41;64.79
30682;BME280;17439;48.092;11.842;2023-02-12T09:15:43;97337.06;;;8.46;64.79
30682;BME280;17439;48.092;11.842;2023-02-12T09:18:12;97340.38;;;8.53;64.53
30682;BME280;17439;48.092;11.842;2023-02-12T09:20:42;97346.41;;;8.61;63.79
30682;BME280;17439;48.092;11.842;2023-02-12T09:23:10;97344.03;;;8.64;63.89
30682;BME280;17439;48.092;11.842;2023-02-12T09:25:42;97345.66;;;8.65;63.39
30682;BME280;17439;48.092;11.842;2023-02-12T09:28:10;97344.31;;;8.68;64.17
30682;BME280;17439;48.092;11.842;2023-02-12T09:30:37;97344.13;;;8.75;64.39
30682;BME280;17439;48.092;11.842;2023-02-12T09:33:06;97340.66;;;8.79;64.22
30682;BME280;17439;48.092;11.842;2023-02-12T09:35:34;97339.66;;;8.85;64.48
30682;BME280;17439;48.092;11.842;2023-02-12T09:38:01;97341.59;;;8.90;64.55
30682;BME280;17439;48.092;11.842;2023-02-12T09:46:21;97345.66;;;9.15;62.21
30682;BME280;17439;48.092;11.842;2023-02-12T09:49:06;97344.63;;;9.21;62.60
30682;BME280;17439;48.092;11.842;2023-02-12T09:51:34;97346.56;;;9.25;62.17
30682;BME280;17439;48.092;11.842;2023-02-12T09:54:06;97347.94;;;9.28;61.61
30682;BME280;17439;48.092;11.842;2023-02-12T09:56:39;97347.75;;;9.35;61.28
30682;BME280;17439;48.092;11.842;2023-02-12T09:59:08;97346.66;;;9.36;61.48
30682;BME280;17439;48.092;11.842;2023-02-12T10:01:38;97344.25;;;9.39;61.19
30682;BME280;17439;48.092;11.842;2023-02-12T10:04:05;97351.31;;;9.40;61.56
30682;BME280;17439;48.092;11.842;2023-02-12T10:06:36;97359.75;;;9.44;60.34
30682;BME280;17439;48.092;11.842;2023-02-12T10:09:22;97355.47;;;9.48;58.84
30682;BME280;17439;48.092;11.842;2023-02-12T10:12:05;97350.28;;;9.47;59.54
30682;BME280;17439;48.092;11.842;2023-02-12T10:14:51;97348.94;;;9.49;61.27
30682;BME280;17439;48.092;11.842;2023-02-12T10:20:15;97344.97;;;9.57;59.98
30682;BME280;17439;48.092;11.842;2023-02-12T10:23:07;97345.00;;;9.62;59.83
30682;BME280;17439;48.092;11.842;2023-02-12T10:25:47;97339.69;;;9.72;60.70
30682;BME280;17439;48.092;11.842;2023-02-12T10:28:25;97350.56;;;9.83;61.99
30682;BME280;17439;48.092;11.842;2023-02-12T10:33:41;97343.13;;;10.05;60.15
30682;BME280;17439;48.092;11.842;2023-02-12T10:36:44;97347.84;;;10.15;59.27
30682;BME280;17439;48.092;11.842;2023-02-12T10:39:20;97355.44;;;10.18;57.90
30682;BME280;17439;48.092;11.842;2023-02-12T10:41:55;97354.38;;;10.24;57.80
30682;BME280;17439;48.092;11.842;2023-02-12T10:44:23;97345.44;;;10.29;60.04
30682;BME280;17439;48.092;11.842;2023-02-12T10:46:50;97341.19;;;10.38;57.51
30682;BME280;17439;48.092;11.842;2023-02-12T10:49:18;97344.75;;;10.44;57.00
30682;BME280;17439;48.092;11.842;2023-02-12T10:54:41;97337.53;;;10.60;54.15
30682;BME280;17439;48.092;11.842;2023-02-12T10:57:14;97341.31;;;10.64;53.65
30682;BME280;17439;48.092;11.842;2023-02-12T10:59:44;97334.84;;;10.70;53.15
30682;BME280;17439;48.092;11.842;2023-02-12T11:04:52;97329.59;;;10.48;54.36
30682;BME280;17439;48.092;11.842;2023-02-12T11:07:21;97332.53;;;10.36;55.75
30682;BME280;17439;48.092;11.842;2023-02-12T11:09:49;97330.53;;;10.26;56.36
30682;BME280;17439;48.092;11.842;2023-02-12T11:12:27;97325.91;;;10.22;57.07
30682;BME280;17439;48.092;11.842;2023-02-12T11:15:00;97323.19;;;10.22;56.82
30682;BME280;17439;48.092;11.842;2023-02-12T11:17:40;97327.84;;;10.31;58.04
30682;BME280;17439;48.092;11.842;2023-02-12T11:23:01;97322.81;;;10.45;55.75
30682;BME280;17439;48.092;11.842;2023-02-12T11:25:30;97315.84;;;10.75;53.15
30682;BME280;17439;48.092;11.842;2023-02-12T11:30:48;97317.66;;;10.49;54.89
30682;BME280;17439;48.092;11.842;2023-02-12T11:33:21;97320.66;;;10.52;55.30
30682;BME280;17439;48.092;11.842;2023-02-12T11:35:50;97313.63;;;10.51;55.27
30682;BME280;17439;48.092;11.842;2023-02-12T11:38:33;97309.53;;;10.54;54.71
30682;BME280;17439;48.092;11.842;2023-02-12T11:41:03;97319.31;;;10.55;53.72
30682;BME280;17439;48.092;11.842;2023-02-12T11:43:33;97316.88;;;10.53;53.60
30682;BME280;17439;48.092;11.842;2023-02-12T11:46:01;97330.69;;;10.47;54.10
30682;BME280;17439;48.092;11.842;2023-02-12T11:48:31;97312.16;;;10.33;54.72
30682;BME280;17439;48.092;11.842;2023-02-12T11:51:01;97310.22;;;10.29;54.94
30682;BME280;17439;48.092;11.842;2023-02-12T11:53:33;97312.34;;;10.22;54.70
30682;BME280;17439;48.092;11.842;2023-02-12T11:56:03;97313.41;;;10.15;55.35
30682;BME280;17439;48.092;11.842;2023-02-12T11:58:30;97301.97;;;10.08;56.39
30682;BME280;17439;48.092;11.842;2023-02-12T12:03:52;97296.25;;;10.05;55.32
30682;BME280;17439;48.092;11.842;2023-02-12T12:06:26;97296.00;;;10.06;55.22
30682;BME280;17439;48.092;11.842;2023-02-12T12:09:04;97292.72;;;9.99;56.02
30682;BME280;17439;48.092;11.842;2023-02-12T12:19:15;97288.38;;;9.98;56.50
30682;BME280;17439;48.092;11.842;2023-02-12T12:24:25;97268.59;;;9.97;56.86
30682;BME280;17439;48.092;11.842;2023-02-12T12:27:09;97270.50;;;10.02;56.92
30682;BME280;17439;48.092;11.842;2023-02-12T12:29:50;97267.53;;;10.04;57.48
30682;BME280;17439;48.092;11.842;2023-02-12T12:32:20;97268.38;;;10.04;57.93
30682;BME280;17439;48.092;11.842;2023-02-12T12:34:48;97275.97;;;10.07;58.27
30682;BME280;17439;48.092;11.842;2023-02-12T12:37:39;97273.00;;;10.09;56.56
30682;BME280;17439;48.092;11.842;2023-02-12T12:40:25;97272.22;;;10.13;57.75
30682;BME280;17439;48.092;11.842;2023-02-12T12:43:11;97263.56;;;10.16;57.31
30682;BME280;17439;48.092;11.842;2023-02-12T12:45:55;97264.13;;;10.24;56.94
30682;BME280;17439;48.092;11.842;2023-02-12T12:51:21;97263.38;;;10.33;56.64
30682;BME280;17439;48.092;11.842;2023-02-12T12:54:03;97260.19;;;10.47;57.66
30682;BME280;17439;48.092;11.842;2023-02-12T13:04:47;97251.00;;;10.68;58.65
30682;BME280;17439;48.092;11.842;2023-02-12T13:07:26;97255.94;;;10.82;57.39
30682;BME280;17439;48.092;11.842;2023-02-12T13:10:33;97254.59;;;11.00;57.16
30682;BME280;17439;48.092;11.842;2023-02-12T13:13:28;97252.19;;;11.19;54.15
30682;BME280;17439;48.092;11.842;2023-02-12T13:16:12;97252.72;;;11.21;53.72
30682;BME280;17439;48.092;11.842;2023-02-12T13:18:53;97254.09;;;11.23;54.03
30682;BME280;17439;48.092;11.842;2023-02-12T13:21:50;97250.28;;;11.19;53.48
30682;BME280;17439;48.092;11.842;2023-02-12T13:26:54;97241.06;;;11.20;52.84
30682;BME280;17439;48.092;11.842;2023-02-12T13:29:35;97246.47;;;11.25;52.28
30682;BME280;17439;48.092;11.842;2023-02-12T13:32:09;97247.81;;;11.23;52.42
30682;BME280;17439;48.092;11.842;2023-02-12T13:34:39;97245.94;;;11.18;52.65
30682;BME280;17439;48.092;11.842;2023-02-12T13:37:16;97247.03;;;11.17;51.95
30682;BME280;17439;48.092;11.842;2023-02-12T13:39:45;97251.38;;;11.18;51.35
30682;BME280;17439;48.092;11.842;2023-02-12T13:50:55;97249.41;;;10.78;53.00
30682;BME280;17439;48.092;11.842;2023-02-12T13:53:43;97243.16;;;10.72;53.04
30682;BME280;17439;48.092;11.842;2023-02-12T13:58:54;97243.38;;;10.55;53.61
30682;BME280;17439;48.092;11.842;2023-02-12T14:01:35;97238.75;;;10.50;53.62
30682;BME280;17439;48.092;11.842;2023-02-12T14:07:05;97243.06;;;10.41;54.08
30682;BME280;17439;48.092;11.842;2023-02-12T14:09:38;97237.91;;;10.45;53.75
30682;BME280;17439;48.092;11.842;2023-02-12T14:14:43;97233.22;;;10.25;55.05
30682;BME280;17439;48.092;11.842;2023-02-12T14:25:08;97232.97;;;10.26;54.75
30682;BME280;17439;48.092;11.842;2023-02-12T14:32:55;97230.97;;;10.11;55.50
30682;BME280;17439;48.092;11.842;2023-02-12T14:37:57;97232.31;;;10.04;56.12
30682;BME280;17439;48.092;11.842;2023-02-12T14:43:01;97232.53;;;9.97;56.92
30682;BME280;17439;48.092;11.842;2023-02-12T14:45:34;97228.22;;;9.96;56.96
30682;BME280;17439;48.092;11.842;2023-02-12T14:48:02;97235.84;;;10.04;56.81
30682;BME280;17439;48.092;11.842;2023-02-12T14:50:38;97234.00;;;10.15;54.73
30682;BME280;17439;48.092;11.842;2023-02-12T14:53:20;97238.59;;;10.20;55.11
30682;BME280;17439;48.092;11.842;2023-02-12T14:55:51;97236.72;;;10.20;54.79
30682;BME280;17439;48.092;11.842;2023-02-12T14:58:19;97241.03;;;10.21;54.67
30682;BME280;17439;48.092;11.842;2023-02-12T15:00:51;97239.44;;;10.20;54.60
30682;BME280;17439;48.092;11.842;2023-02-12T15:03:24;97238.91;;;10.23;54.32